Terminal Aerodrome Forecast
Issued by NWS

Home | Current Version | Previous Version | Text Only | Print | Product List | Glossary On
Versions: 1 2 3 4 5 6 7 8 9 10 11 12 13 14 15 16 17 18 19 20 21 22 23 24 25 26 27
000
FTUS46 KSGX 300520
TAFSAN
TAF
KSAN 300520Z 3006/3112 VRB04KT P6SM SKC
     FM301000 VRB04KT P6SM BKN007
     FM301600 VRB04KT P6SM SCT010
     FM301900 29010KT P6SM SKC
     FM310100 VRB04KT P6SM FEW012
     FM310500 VRB04KT P6SM OVC012=

USA.gov is the U.S. government's official web portal to all federal, state and local government web resources and services.